Airfield :
LOGIN :

Register | Disclaimer

   EN    FR    IT 

 










Legend :    VFR   Marginal VFR   IFR   Intensive IFR   Very Intensive IFR
Visi :
Ceiling :
>= 8 km
>= 3000ft
5 to 8 km
1000 to 3000 ft
1500m to 5 km
500 to 1000 ft
800 to 1500m
200 to 500 ft
< 800m
< 200 ft
Symbols :   Thunderstorms  Fog  Heavy snow  Heavy precipitations  Wind > 20 kt
SIGMETs :     Misc.  Thunderstorms  Icing  Turbulence  Mountain Waves  Volcanic Ashes







- Airport Elevation : 39 ft
- IATA code : TRS


LIPQ - Friuli Venezia Giulia Apt. Trieste

CURRENT METAR :
  • 182150Z 00000KT 0100 R09/0325N FG OVC005 09/08 Q1019

EXPIRED METARs :
  • 182120Z VRB01KT 0500 R09/0500N FG OVC007 08/08 Q1019
  • 182050Z 03001KT 0300 R09/0375N FG OVC060 09/09 Q1019
  • 182020Z 04001KT 0300 R09/0325V0550N FG OVC008 09/09 Q1019
  • 181950Z VRB01KT 0300 R09/0325D FG OVC010 10/09 Q1019
  • 181920Z 36002KT 0500 R09/1400U BCFG BKN015 10/09 Q1019

TAF COR TAF LIPQ
Valid from the 18 at 18:00 until the 19 at 18:00 UTC


181756Z 1818/1918 VRB05KT 4000 BR NSC
BECMG 1818/1820 2000 BR
BECMG 1820/1822 0600 FG BKN005
BECMG 1908/1910 7000 NSW FEW030
BECMG 1916/1918 4000 BR
No reported NOTAMs for that airfield.



MET'MAP, your aeronautical weather chart ! - Copyright ORBIFLY December 2007 - Disclaimer

ORBIFLY MET'MAP TEAM :

Programming & Development : Alexandra Zaïnal
Concept & Development : Baudouin d'Aumeries
Co-Development & Prog : Marc-Olivier Méhu
Technical & hardware support : Manuel Goepfert

Contact : metmap@orbifly.com




SOURCES & CREDITS :

   NOAA